Main page
METAR-TAF:

METAR-TAF

Airports :

Los Cabos International Airport

San José Del Cabo, Mexico

latitude: 23-09N, longitude: 109-42W, elevation: 109 m

Current weather observation

The report was made 47 minutes ago, at 15:43 UTC
Wind 8 kt from the North/Northwest
Temperature 28°C
Humidity 37%
Pressure 1014 hPa
Visibility: 19.3 km
Clear sky

METAR: MMSD 281543Z 34008KT 12SM SKC 28/12 A2995

Time: 10:30 (16:30 UTC)

Forecast

The report was made 11 hours and 57 minutes ago, at 04:33 UTC
Forecast valid from 28 at 06 UTC to 29 at 06 UTC
Wind 5 kt from the East/Southeast
Visibility: 10 km
Clear sky
From 28 at 1900 UTC
Wind 12 kt from the Southeast
Visibility: 10 km
Clear sky
From 29 at 0300 UTC
Wind 5 kt from the Southeast
Visibility: 10 km
Clear sky

TAF: MMSD 280433Z 2806/2906 12005KT P6SM SKC FM281900 13012KT P6SM SKC FM290300 13005KT P6SM SKC

Weather observations and forecasts of more than 4000 airports (METAR and TAF reports).

The available stations are represented by yellow and red dots on the map.

Hover mouse over dot to see the name of the station.

Then click to see weather observations and forecasts.

To change the map : click on the green buttons with a black cross to zoom in, on the green button with a dash to zoom out, or on the green arrows for adjacent maps.


METAR-TAF: